sensor_id;sensor_type;location;lat;lon;timestamp;pressure;altitude;pressure_sealevel;temperature;humidity
45731;BME280;31440;48.584;13.460;2022-11-20T00:00:24;96268.09;;;0.91;100.00
45731;BME280;31440;48.584;13.460;2022-11-20T00:02:50;96263.59;;;1.13;100.00
45731;BME280;31440;48.584;13.460;2022-11-20T00:05:15;96265.22;;;1.20;100.00
45731;BME280;31440;48.584;13.460;2022-11-20T00:07:41;96270.06;;;1.41;100.00
45731;BME280;31440;48.584;13.460;2022-11-20T00:10:07;96272.16;;;1.10;100.00
45731;BME280;31440;48.584;13.460;2022-11-20T00:12:32;96250.44;;;1.40;100.00
45731;BME280;31440;48.584;13.460;2022-11-20T00:14:58;96266.94;;;1.21;100.00
45731;BME280;31440;48.584;13.460;2022-11-20T00:17:23;96261.47;;;1.48;100.00
45731;BME280;31440;48.584;13.460;2022-11-20T00:19:49;96262.03;;;1.72;100.00
45731;BME280;31440;48.584;13.460;2022-11-20T00:22:14;96267.66;;;1.31;100.00
45731;BME280;31440;48.584;13.460;2022-11-20T00:24:40;96267.63;;;1.34;100.00
45731;BME280;31440;48.584;13.460;2022-11-20T00:27:05;96272.97;;;1.16;100.00
45731;BME280;31440;48.584;13.460;2022-11-20T00:31:58;96271.94;;;1.30;100.00
45731;BME280;31440;48.584;13.460;2022-11-20T00:34:24;96274.09;;;0.87;100.00
45731;BME280;31440;48.584;13.460;2022-11-20T00:36:49;96272.13;;;1.12;100.00
45731;BME280;31440;48.584;13.460;2022-11-20T00:39:15;96272.16;;;1.09;100.00
45731;BME280;31440;48.584;13.460;2022-11-20T00:41:41;96271.84;;;1.38;100.00
45731;BME280;31440;48.584;13.460;2022-11-20T00:44:06;96271.06;;;1.31;100.00
45731;BME280;31440;48.584;13.460;2022-11-20T00:46:32;96269.38;;;1.29;100.00
45731;BME280;31440;48.584;13.460;2022-11-20T00:48:57;96268.25;;;1.53;100.00
45731;BME280;31440;48.584;13.460;2022-11-20T00:51:25;96273.38;;;1.51;100.00
45731;BME280;31440;48.584;13.460;2022-11-20T00:53:51;96269.06;;;1.56;100.00
45731;BME280;31440;48.584;13.460;2022-11-20T00:56:18;96270.88;;;1.46;100.00
45731;BME280;31440;48.584;13.460;2022-11-20T00:58:47;96276.84;;;1.47;100.00
45731;BME280;31440;48.584;13.460;2022-11-20T01:01:19;96266.59;;;1.48;100.00
45731;BME280;31440;48.584;13.460;2022-11-20T01:03:47;96268.25;;;1.51;100.00
45731;BME280;31440;48.584;13.460;2022-11-20T01:06:18;96267.50;;;1.41;100.00
45731;BME280;31440;48.584;13.460;2022-11-20T01:08:45;96271.06;;;1.31;100.00
45731;BME280;31440;48.584;13.460;2022-11-20T01:11:14;96271.13;;;1.25;100.00
45731;BME280;31440;48.584;13.460;2022-11-20T01:13:40;96275.31;;;1.34;100.00
45731;BME280;31440;48.584;13.460;2022-11-20T01:16:09;96279.22;;;1.62;100.00
45731;BME280;31440;48.584;13.460;2022-11-20T01:18:36;96276.06;;;1.42;100.00
45731;BME280;31440;48.584;13.460;2022-11-20T01:21:06;96285.41;;;1.44;100.00
45731;BME280;31440;48.584;13.460;2022-11-20T01:23:36;96280.16;;;1.57;100.00
45731;BME280;31440;48.584;13.460;2022-11-20T01:26:05;96288.63;;;1.62;100.00
45731;BME280;31440;48.584;13.460;2022-11-20T01:28:32;96288.06;;;1.38;100.00
45731;BME280;31440;48.584;13.460;2022-11-20T01:30:58;96282.84;;;1.46;100.00
45731;BME280;31440;48.584;13.460;2022-11-20T01:33:24;96283.69;;;1.45;100.00
45731;BME280;31440;48.584;13.460;2022-11-20T01:35:50;96286.25;;;1.45;100.00
45731;BME280;31440;48.584;13.460;2022-11-20T01:38:16;96289.00;;;1.31;100.00
45731;BME280;31440;48.584;13.460;2022-11-20T01:40:42;96290.72;;;1.29;100.00
45731;BME280;31440;48.584;13.460;2022-11-20T01:43:17;96297.66;;;1.21;100.00
45731;BME280;31440;48.584;13.460;2022-11-20T01:45:55;96288.22;;;1.25;100.00
45731;BME280;31440;48.584;13.460;2022-11-20T01:48:22;96288.59;;;0.88;100.00
45731;BME280;31440;48.584;13.460;2022-11-20T01:50:50;96288.53;;;0.96;100.00
45731;BME280;31440;48.584;13.460;2022-11-20T01:53:18;96285.22;;;0.86;100.00
45731;BME280;31440;48.584;13.460;2022-11-20T01:55:50;96288.34;;;1.12;100.00
45731;BME280;31440;48.584;13.460;2022-11-20T01:58:20;96294.34;;;1.11;100.00
45731;BME280;31440;48.584;13.460;2022-11-20T02:00:47;96284.91;;;1.15;100.00
45731;BME280;31440;48.584;13.460;2022-11-20T02:03:16;96287.50;;;1.10;100.00
45731;BME280;31440;48.584;13.460;2022-11-20T02:05:53;96287.47;;;1.17;100.00
45731;BME280;31440;48.584;13.460;2022-11-20T02:08:21;96291.81;;;1.07;100.00
45731;BME280;31440;48.584;13.460;2022-11-20T02:10:48;96285.22;;;1.61;100.00
45731;BME280;31440;48.584;13.460;2022-11-20T02:13:15;96268.56;;;1.25;100.00
45731;BME280;31440;48.584;13.460;2022-11-20T02:16:00;96297.25;;;1.56;100.00
45731;BME280;31440;48.584;13.460;2022-11-20T02:18:26;96275.97;;;1.49;100.00
45731;BME280;31440;48.584;13.460;2022-11-20T02:21:01;96295.84;;;1.28;100.00
45731;BME280;31440;48.584;13.460;2022-11-20T02:23:39;96297.28;;;1.55;100.00
45731;BME280;31440;48.584;13.460;2022-11-20T02:26:11;96297.91;;;1.70;100.00
45731;BME280;31440;48.584;13.460;2022-11-20T02:28:38;96292.97;;;1.58;100.00
45731;BME280;31440;48.584;13.460;2022-11-20T02:31:04;96295.19;;;1.12;100.00
45731;BME280;31440;48.584;13.460;2022-11-20T02:33:30;96294.19;;;1.25;100.00
45731;BME280;31440;48.584;13.460;2022-11-20T02:35:55;96295.13;;;1.17;100.00
45731;BME280;31440;48.584;13.460;2022-11-20T02:38:21;96288.38;;;1.11;100.00
45731;BME280;31440;48.584;13.460;2022-11-20T02:40:46;96291.78;;;1.10;100.00
45731;BME280;31440;48.584;13.460;2022-11-20T02:43:12;96289.06;;;1.25;100.00
45731;BME280;31440;48.584;13.460;2022-11-20T02:45:37;96288.63;;;1.60;100.00
45731;BME280;31440;48.584;13.460;2022-11-20T02:48:03;96291.28;;;1.54;100.00
45731;BME280;31440;48.584;13.460;2022-11-20T02:50:29;96283.34;;;1.74;100.00
45731;BME280;31440;48.584;13.460;2022-11-20T02:52:54;96293.19;;;1.40;100.00
45731;BME280;31440;48.584;13.460;2022-11-20T02:55:20;96287.84;;;1.57;100.00
45731;BME280;31440;48.584;13.460;2022-11-20T02:57:45;96288.69;;;1.57;100.00
45731;BME280;31440;48.584;13.460;2022-11-20T03:00:11;96286.34;;;1.39;100.00
45731;BME280;31440;48.584;13.460;2022-11-20T03:02:37;96282.72;;;1.57;100.00
45731;BME280;31440;48.584;13.460;2022-11-20T03:05:03;96277.47;;;1.66;100.00
45731;BME280;31440;48.584;13.460;2022-11-20T03:07:28;96283.69;;;1.46;100.00
45731;BME280;31440;48.584;13.460;2022-11-20T03:09:54;96277.59;;;1.58;100.00
45731;BME280;31440;48.584;13.460;2022-11-20T03:12:20;96272.94;;;1.86;100.00
45731;BME280;31440;48.584;13.460;2022-11-20T03:14:45;96280.25;;;1.47;100.00
45731;BME280;31440;48.584;13.460;2022-11-20T03:17:11;96282.94;;;1.38;100.00
45731;BME280;31440;48.584;13.460;2022-11-20T03:19:36;96278.69;;;1.37;100.00
45731;BME280;31440;48.584;13.460;2022-11-20T03:22:02;96283.03;;;1.31;100.00
45731;BME280;31440;48.584;13.460;2022-11-20T03:24:28;96281.13;;;1.46;100.00
45731;BME280;31440;48.584;13.460;2022-11-20T03:26:53;96280.28;;;1.46;100.00
45731;BME280;31440;48.584;13.460;2022-11-20T03:29:19;96284.78;;;1.26;100.00
45731;BME280;31440;48.584;13.460;2022-11-20T03:31:45;96288.22;;;1.25;100.00
45731;BME280;31440;48.584;13.460;2022-11-20T03:34:11;96281.91;;;1.55;100.00
45731;BME280;31440;48.584;13.460;2022-11-20T03:36:41;96285.19;;;1.64;100.00
45731;BME280;31440;48.584;13.460;2022-11-20T03:39:07;96283.59;;;1.54;100.00
45731;BME280;31440;48.584;13.460;2022-11-20T03:41:37;96285.16;;;1.66;100.00
45731;BME280;31440;48.584;13.460;2022-11-20T03:44:05;96293.69;;;1.66;100.00
45731;BME280;31440;48.584;13.460;2022-11-20T03:46:32;96296.22;;;1.69;100.00
45731;BME280;31440;48.584;13.460;2022-11-20T03:48:57;96291.91;;;1.74;100.00
45731;BME280;31440;48.584;13.460;2022-11-20T03:51:25;96296.28;;;1.63;100.00
45731;BME280;31440;48.584;13.460;2022-11-20T03:53:53;96294.84;;;1.42;100.00
45731;BME280;31440;48.584;13.460;2022-11-20T03:56:22;96296.44;;;1.53;100.00
45731;BME280;31440;48.584;13.460;2022-11-20T03:58:48;96300.06;;;1.33;100.00
45731;BME280;31440;48.584;13.460;2022-11-20T04:01:16;96289.78;;;1.39;100.00
45731;BME280;31440;48.584;13.460;2022-11-20T04:03:43;96300.91;;;1.37;100.00
45731;BME280;31440;48.584;13.460;2022-11-20T04:06:11;96295.78;;;1.35;100.00
45731;BME280;31440;48.584;13.460;2022-11-20T04:08:37;96300.91;;;1.35;100.00
45731;BME280;31440;48.584;13.460;2022-11-20T04:11:15;96296.69;;;1.30;100.00
45731;BME280;31440;48.584;13.460;2022-11-20T04:13:42;96301.66;;;1.43;100.00
45731;BME280;31440;48.584;13.460;2022-11-20T04:16:09;96298.41;;;1.31;100.00
45731;BME280;31440;48.584;13.460;2022-11-20T04:18:35;96266.94;;;1.20;100.00
45731;BME280;31440;48.584;13.460;2022-11-20T04:21:01;96292.44;;;1.27;100.00
45731;BME280;31440;48.584;13.460;2022-11-20T04:23:27;96295.41;;;1.64;100.00
45731;BME280;31440;48.584;13.460;2022-11-20T04:25:53;96292.03;;;1.62;100.00
45731;BME280;31440;48.584;13.460;2022-11-20T04:28:19;96291.09;;;1.71;100.00
45731;BME280;31440;48.584;13.460;2022-11-20T04:30:44;96292.97;;;1.57;100.00
45731;BME280;31440;48.584;13.460;2022-11-20T04:33:11;96288.88;;;1.40;100.00
45731;BME280;31440;48.584;13.460;2022-11-20T04:35:37;96286.25;;;1.46;100.00
45731;BME280;31440;48.584;13.460;2022-11-20T04:38:03;96285.38;;;1.47;100.00
45731;BME280;31440;48.584;13.460;2022-11-20T04:40:29;96290.50;;;1.47;100.00
45731;BME280;31440;48.584;13.460;2022-11-20T04:42:55;96281.81;;;1.59;100.00
45731;BME280;31440;48.584;13.460;2022-11-20T04:45:22;96276.44;;;1.79;100.00
45731;BME280;31440;48.584;13.460;2022-11-20T04:47:47;96287.00;;;1.56;100.00
45731;BME280;31440;48.584;13.460;2022-11-20T04:50:13;96281.03;;;1.56;100.00
45731;BME280;31440;48.584;13.460;2022-11-20T04:52:39;96281.16;;;1.42;100.00
45731;BME280;31440;48.584;13.460;2022-11-20T04:55:04;96282.44;;;1.78;100.00
45731;BME280;31440;48.584;13.460;2022-11-20T04:57:30;96273.50;;;1.40;100.00
45731;BME280;31440;48.584;13.460;2022-11-20T04:59:56;96275.69;;;1.71;100.00
45731;BME280;31440;48.584;13.460;2022-11-20T05:02:21;96270.66;;;1.65;100.00
45731;BME280;31440;48.584;13.460;2022-11-20T05:04:47;96277.63;;;1.55;100.00
45731;BME280;31440;48.584;13.460;2022-11-20T05:07:12;96288.81;;;1.46;100.00
45731;BME280;31440;48.584;13.460;2022-11-20T05:09:38;96285.28;;;1.57;100.00
45731;BME280;31440;48.584;13.460;2022-11-20T05:12:04;96283.56;;;1.57;100.00
45731;BME280;31440;48.584;13.460;2022-11-20T05:14:29;96290.69;;;1.34;100.00
45731;BME280;31440;48.584;13.460;2022-11-20T05:16:55;96292.38;;;1.35;100.00
45731;BME280;31440;48.584;13.460;2022-11-20T05:19:20;96277.72;;;1.46;100.00
45731;BME280;31440;48.584;13.460;2022-11-20T05:21:46;96293.06;;;1.49;100.00
45731;BME280;31440;48.584;13.460;2022-11-20T05:24:12;96295.38;;;1.69;100.00
45731;BME280;31440;48.584;13.460;2022-11-20T05:26:37;96302.78;;;1.21;100.00
45731;BME280;31440;48.584;13.460;2022-11-20T05:29:03;96294.97;;;1.30;100.00
45731;BME280;31440;48.584;13.460;2022-11-20T05:31:28;96294.19;;;1.25;100.00
45731;BME280;31440;48.584;13.460;2022-11-20T05:33:55;96290.50;;;1.47;100.00
45731;BME280;31440;48.584;13.460;2022-11-20T05:36:21;96295.47;;;1.60;100.00
45731;BME280;31440;48.584;13.460;2022-11-20T05:38:46;96301.47;;;1.59;100.00
45731;BME280;31440;48.584;13.460;2022-11-20T05:41:13;96294.34;;;1.80;100.00
45731;BME280;31440;48.584;13.460;2022-11-20T05:43:40;96299.38;;;1.90;100.00
45731;BME280;31440;48.584;13.460;2022-11-20T05:46:08;96296.72;;;1.96;100.00
45731;BME280;31440;48.584;13.460;2022-11-20T05:48:34;96287.94;;;1.49;100.00
45731;BME280;31440;48.584;13.460;2022-11-20T05:51:01;96301.56;;;1.51;100.00
45731;BME280;31440;48.584;13.460;2022-11-20T05:53:27;96298.19;;;1.49;100.00
45731;BME280;31440;48.584;13.460;2022-11-20T05:55:59;96299.69;;;1.64;100.00
45731;BME280;31440;48.584;13.460;2022-11-20T05:58:25;96303.03;;;1.72;100.00
45731;BME280;31440;48.584;13.460;2022-11-20T06:00:51;96306.56;;;1.62;100.00
45731;BME280;31440;48.584;13.460;2022-11-20T06:03:17;96312.78;;;1.41;100.00
45731;BME280;31440;48.584;13.460;2022-11-20T06:05:42;96304.31;;;1.36;100.00
45731;BME280;31440;48.584;13.460;2022-11-20T06:08:08;96315.19;;;1.58;100.00
45731;BME280;31440;48.584;13.460;2022-11-20T06:10:33;96304.69;;;1.76;100.00
45731;BME280;31440;48.584;13.460;2022-11-20T06:12:59;96310.22;;;1.41;100.00
45731;BME280;31440;48.584;13.460;2022-11-20T06:15:24;96307.44;;;1.59;100.00
45731;BME280;31440;48.584;13.460;2022-11-20T06:17:53;96311.88;;;1.45;100.00
45731;BME280;31440;48.584;13.460;2022-11-20T06:20:20;96310.06;;;1.56;100.00
45731;BME280;31440;48.584;13.460;2022-11-20T06:22:46;96304.31;;;1.37;100.00
45731;BME280;31440;48.584;13.460;2022-11-20T06:25:11;96311.81;;;1.51;100.00
45731;BME280;31440;48.584;13.460;2022-11-20T06:27:37;96309.72;;;1.80;100.00
45731;BME280;31440;48.584;13.460;2022-11-20T06:30:03;96316.78;;;1.63;100.00
45731;BME280;31440;48.584;13.460;2022-11-20T06:32:29;96314.19;;;1.66;100.00
45731;BME280;31440;48.584;13.460;2022-11-20T06:34:55;96335.81;;;1.42;100.00
45731;BME280;31440;48.584;13.460;2022-11-20T06:37:20;96327.00;;;1.66;100.00
45731;BME280;31440;48.584;13.460;2022-11-20T06:39:46;96330.44;;;1.65;100.00
45731;BME280;31440;48.584;13.460;2022-11-20T06:42:13;96281.31;;;1.30;100.00
45731;BME280;31440;48.584;13.460;2022-11-20T06:44:39;96329.94;;;1.36;100.00
45731;BME280;31440;48.584;13.460;2022-11-20T06:47:04;96332.59;;;1.25;100.00
45731;BME280;31440;48.584;13.460;2022-11-20T06:51:57;96338.66;;;1.18;100.00
45731;BME280;31440;48.584;13.460;2022-11-20T06:54:22;96340.88;;;1.48;100.00
45731;BME280;31440;48.584;13.460;2022-11-20T06:56:48;96349.59;;;1.35;100.00
45731;BME280;31440;48.584;13.460;2022-11-20T06:59:14;96355.06;;;0.99;100.00
45731;BME280;31440;48.584;13.460;2022-11-20T07:01:39;96356.31;;;1.44;100.00
45731;BME280;31440;48.584;13.460;2022-11-20T07:04:05;96355.47;;;1.40;100.00
45731;BME280;31440;48.584;13.460;2022-11-20T07:06:30;96347.03;;;1.34;100.00
45731;BME280;31440;48.584;13.460;2022-11-20T07:08:56;96340.00;;;1.51;100.00
45731;BME280;31440;48.584;13.460;2022-11-20T07:11:22;96339.66;;;1.80;100.00
45731;BME280;31440;48.584;13.460;2022-11-20T07:13:48;96353.28;;;1.83;100.00
45731;BME280;31440;48.584;13.460;2022-11-20T07:16:13;96352.78;;;1.56;100.00
45731;BME280;31440;48.584;13.460;2022-11-20T07:18:39;96356.00;;;1.71;100.00
45731;BME280;31440;48.584;13.460;2022-11-20T07:21:07;96355.44;;;1.43;100.00
45731;BME280;31440;48.584;13.460;2022-11-20T07:23:33;96361.31;;;1.55;100.00
45731;BME280;31440;48.584;13.460;2022-11-20T07:26:04;96355.34;;;1.54;100.00
45731;BME280;31440;48.584;13.460;2022-11-20T07:28:29;96360.28;;;1.69;100.00
45731;BME280;31440;48.584;13.460;2022-11-20T07:30:55;96355.84;;;1.85;100.00
45731;BME280;31440;48.584;13.460;2022-11-20T07:33:20;96360.28;;;1.71;100.00
45731;BME280;31440;48.584;13.460;2022-11-20T07:35:46;96354.28;;;1.72;100.00
45731;BME280;31440;48.584;13.460;2022-11-20T07:38:12;96344.94;;;1.68;100.00
45731;BME280;31440;48.584;13.460;2022-11-20T07:40:37;96359.41;;;1.72;100.00
45731;BME280;31440;48.584;13.460;2022-11-20T07:43:03;96343.22;;;1.68;100.00
45731;BME280;31440;48.584;13.460;2022-11-20T07:45:29;96345.34;;;2.03;100.00
45731;BME280;31440;48.584;13.460;2022-11-20T07:47:54;96355.00;;;1.83;100.00
45731;BME280;31440;48.584;13.460;2022-11-20T07:50:20;96344.75;;;1.81;100.00
45731;BME280;31440;48.584;13.460;2022-11-20T07:52:45;96346.50;;;1.79;100.00
45731;BME280;31440;48.584;13.460;2022-11-20T07:55:11;96344.03;;;1.73;100.00
45731;BME280;31440;48.584;13.460;2022-11-20T07:57:36;96340.47;;;1.82;100.00
45731;BME280;31440;48.584;13.460;2022-11-20T08:00:03;96337.06;;;1.81;100.00
45731;BME280;31440;48.584;13.460;2022-11-20T08:02:38;96344.44;;;2.06;100.00
45731;BME280;31440;48.584;13.460;2022-11-20T08:05:04;96349.31;;;2.26;100.00
45731;BME280;31440;48.584;13.460;2022-11-20T08:07:36;96350.22;;;2.20;100.00
45731;BME280;31440;48.584;13.460;2022-11-20T08:10:02;96352.81;;;2.18;100.00
45731;BME280;31440;48.584;13.460;2022-11-20T08:15:13;96358.88;;;2.13;100.00
45731;BME280;31440;48.584;13.460;2022-11-20T08:17:39;96355.97;;;2.39;100.00
45731;BME280;31440;48.584;13.460;2022-11-20T08:20:04;96348.31;;;2.34;100.00
45731;BME280;31440;48.584;13.460;2022-11-20T08:22:30;96357.22;;;2.10;100.00
45731;BME280;31440;48.584;13.460;2022-11-20T08:24:55;96357.72;;;2.34;100.00
45731;BME280;31440;48.584;13.460;2022-11-20T08:27:21;96355.19;;;2.31;100.00
45731;BME280;31440;48.584;13.460;2022-11-20T08:29:47;96349.66;;;2.60;100.00
45731;BME280;31440;48.584;13.460;2022-11-20T08:32:12;96349.25;;;2.84;100.00
45731;BME280;31440;48.584;13.460;2022-11-20T08:34:38;96350.66;;;2.48;100.00
45731;BME280;31440;48.584;13.460;2022-11-20T08:37:03;96348.69;;;2.67;100.00
45731;BME280;31440;48.584;13.460;2022-11-20T08:39:32;96319.78;;;2.54;100.00
45731;BME280;31440;48.584;13.460;2022-11-20T08:41:58;96343.38;;;2.77;100.00
45731;BME280;31440;48.584;13.460;2022-11-20T08:44:23;96343.22;;;2.86;100.00
45731;BME280;31440;48.584;13.460;2022-11-20T08:46:49;96355.53;;;2.66;100.00
45731;BME280;31440;48.584;13.460;2022-11-20T08:49:15;96351.50;;;3.04;100.00
45731;BME280;31440;48.584;13.460;2022-11-20T08:51:41;96350.91;;;2.86;100.00
45731;BME280;31440;48.584;13.460;2022-11-20T08:54:07;96349.56;;;3.16;100.00
45731;BME280;31440;48.584;13.460;2022-11-20T08:56:33;96344.50;;;3.13;100.00
45731;BME280;31440;48.584;13.460;2022-11-20T08:58:59;96344.22;;;2.79;100.00
45731;BME280;31440;48.584;13.460;2022-11-20T09:01:25;96332.38;;;2.69;100.00
45731;BME280;31440;48.584;13.460;2022-11-20T09:03:51;96343.22;;;3.36;100.00
45731;BME280;31440;48.584;13.460;2022-11-20T09:06:17;96344.63;;;3.04;100.00
45731;BME280;31440;48.584;13.460;2022-11-20T09:08:43;96348.19;;;2.97;100.00
45731;BME280;31440;48.584;13.460;2022-11-20T09:11:09;96337.56;;;3.18;100.00
45731;BME280;31440;48.584;13.460;2022-11-20T09:13:35;96337.94;;;5.01;100.00
45731;BME280;31440;48.584;13.460;2022-11-20T09:16:06;96319.56;;;5.47;100.00
45731;BME280;31440;48.584;13.460;2022-11-20T09:18:34;96323.75;;;6.41;100.00
45731;BME280;31440;48.584;13.460;2022-11-20T09:21:04;96321.84;;;5.25;100.00
45731;BME280;31440;48.584;13.460;2022-11-20T09:23:34;96321.72;;;4.24;100.00
45731;BME280;31440;48.584;13.460;2022-11-20T09:26:05;96324.03;;;3.97;100.00
45731;BME280;31440;48.584;13.460;2022-11-20T09:28:31;96328.88;;;3.69;100.00
45731;BME280;31440;48.584;13.460;2022-11-20T09:30:57;96329.78;;;3.66;100.00
45731;BME280;31440;48.584;13.460;2022-11-20T09:33:22;96328.19;;;4.04;100.00
45731;BME280;31440;48.584;13.460;2022-11-20T09:35:48;96323.19;;;4.72;100.00
45731;BME280;31440;48.584;13.460;2022-11-20T09:38:14;96332.34;;;4.09;100.00
45731;BME280;31440;48.584;13.460;2022-11-20T09:48:48;96324.75;;;3.60;100.00
45731;BME280;31440;48.584;13.460;2022-11-20T09:51:25;96321.44;;;3.55;100.00
45731;BME280;31440;48.584;13.460;2022-11-20T09:56:20;96322.41;;;3.92;100.00
45731;BME280;31440;48.584;13.460;2022-11-20T09:58:49;96320.81;;;3.85;100.00
45731;BME280;31440;48.584;13.460;2022-11-20T10:01:17;96319.94;;;3.86;100.00
45731;BME280;31440;48.584;13.460;2022-11-20T10:03:57;96311.28;;;3.92;100.00
45731;BME280;31440;48.584;13.460;2022-11-20T10:09:20;96315.81;;;3.78;100.00
45731;BME280;31440;48.584;13.460;2022-11-20T10:11:51;96304.72;;;3.76;100.00
45731;BME280;31440;48.584;13.460;2022-11-20T10:20:16;96298.47;;;3.90;100.00
45731;BME280;31440;48.584;13.460;2022-11-20T10:25:37;96283.69;;;3.57;100.00
45731;BME280;31440;48.584;13.460;2022-11-20T10:28:12;96304.22;;;3.58;100.00
45731;BME280;31440;48.584;13.460;2022-11-20T10:30:44;96296.25;;;3.72;100.00
45731;BME280;31440;48.584;13.460;2022-11-20T10:33:19;96289.03;;;3.48;100.00
45731;BME280;31440;48.584;13.460;2022-11-20T10:35:54;96294.06;;;3.96;100.00
45731;BME280;31440;48.584;13.460;2022-11-20T10:38:31;96290.78;;;3.89;100.00
45731;BME280;31440;48.584;13.460;2022-11-20T10:41:01;96287.63;;;3.73;100.00
45731;BME280;31440;48.584;13.460;2022-11-20T10:43:48;96283.34;;;3.74;100.00
45731;BME280;31440;48.584;13.460;2022-11-20T10:46:19;96289.66;;;4.01;100.00
45731;BME280;31440;48.584;13.460;2022-11-20T10:48:48;96283.78;;;3.94;100.00
45731;BME280;31440;48.584;13.460;2022-11-20T10:54:43;96283.97;;;4.25;100.00
45731;BME280;31440;48.584;13.460;2022-11-20T10:57:10;96276.38;;;4.19;100.00
45731;BME280;31440;48.584;13.460;2022-11-20T11:02:19;96275.78;;;4.08;100.00
45731;BME280;31440;48.584;13.460;2022-11-20T11:04:50;96270.59;;;4.09;100.00
45731;BME280;31440;48.584;13.460;2022-11-20T11:07:21;96269.88;;;4.41;100.00
45731;BME280;31440;48.584;13.460;2022-11-20T11:09:53;96266.03;;;4.22;100.00
45731;BME280;31440;48.584;13.460;2022-11-20T11:12:20;96267.84;;;4.17;100.00
45731;BME280;31440;48.584;13.460;2022-11-20T11:14:47;96269.41;;;4.24;100.00
45731;BME280;31440;48.584;13.460;2022-11-20T11:17:46;96271.69;;;3.99;100.00
45731;BME280;31440;48.584;13.460;2022-11-20T11:20:18;96273.84;;;4.17;100.00
45731;BME280;31440;48.584;13.460;2022-11-20T11:25:40;96271.75;;;4.33;100.00
45731;BME280;31440;48.584;13.460;2022-11-20T11:30:44;96259.31;;;4.15;100.00
45731;BME280;31440;48.584;13.460;2022-11-20T11:33:12;96258.94;;;3.93;100.00
45731;BME280;31440;48.584;13.460;2022-11-20T11:35:51;96254.69;;;3.92;100.00
45731;BME280;31440;48.584;13.460;2022-11-20T11:38:29;96237.06;;;4.12;100.00
45731;BME280;31440;48.584;13.460;2022-11-20T11:40:56;96254.78;;;4.26;100.00
45731;BME280;31440;48.584;13.460;2022-11-20T11:43:25;96256.09;;;4.07;100.00
45731;BME280;31440;48.584;13.460;2022-11-20T11:46:52;96251.00;;;4.04;100.00
45731;BME280;31440;48.584;13.460;2022-11-20T11:49:19;96251.31;;;3.90;100.00
45731;BME280;31440;48.584;13.460;2022-11-20T11:52:00;96244.72;;;3.75;100.00
45731;BME280;31440;48.584;13.460;2022-11-20T11:57:00;96236.56;;;3.98;100.00
45731;BME280;31440;48.584;13.460;2022-11-20T11:59:33;96236.19;;;3.73;100.00
45731;BME280;31440;48.584;13.460;2022-11-20T12:02:15;96230.38;;;4.07;100.00
45731;BME280;31440;48.584;13.460;2022-11-20T12:04:52;96230.53;;;4.36;100.00
45731;BME280;31440;48.584;13.460;2022-11-20T12:07:47;96223.13;;;4.58;100.00
45731;BME280;31440;48.584;13.460;2022-11-20T12:10:43;96230.06;;;4.19;100.00
45731;BME280;31440;48.584;13.460;2022-11-20T12:15:47;96228.47;;;4.49;100.00
45731;BME280;31440;48.584;13.460;2022-11-20T12:18:21;96232.88;;;4.79;100.00
45731;BME280;31440;48.584;13.460;2022-11-20T12:23:53;96232.94;;;4.42;100.00
45731;BME280;31440;48.584;13.460;2022-11-20T12:29:36;96207.66;;;4.24;100.00
45731;BME280;31440;48.584;13.460;2022-11-20T12:34:56;96223.81;;;4.29;100.00
45731;BME280;31440;48.584;13.460;2022-11-20T12:43:27;96210.97;;;4.27;100.00
45731;BME280;31440;48.584;13.460;2022-11-20T12:46:33;96215.34;;;4.25;100.00
45731;BME280;31440;48.584;13.460;2022-11-20T12:49:24;96214.22;;;4.36;100.00
45731;BME280;31440;48.584;13.460;2022-11-20T12:52:07;96204.28;;;4.22;100.00
45731;BME280;31440;48.584;13.460;2022-11-20T12:54:48;96205.75;;;4.31;100.00
45731;BME280;31440;48.584;13.460;2022-11-20T12:59:57;96197.25;;;4.27;100.00
45731;BME280;31440;48.584;13.460;2022-11-20T13:02:41;96197.34;;;4.25;100.00
45731;BME280;31440;48.584;13.460;2022-11-20T13:07:42;96192.94;;;4.29;100.00
45731;BME280;31440;48.584;13.460;2022-11-20T13:10:33;96189.47;;;4.30;100.00
45731;BME280;31440;48.584;13.460;2022-11-20T13:15:50;96205.28;;;4.15;100.00
45731;BME280;31440;48.584;13.460;2022-11-20T13:18:19;96199.59;;;4.38;100.00
45731;BME280;31440;48.584;13.460;2022-11-20T13:20:46;96187.50;;;4.41;100.00
45731;BME280;31440;48.584;13.460;2022-11-20T13:23:26;96196.25;;;4.34;100.00
45731;BME280;31440;48.584;13.460;2022-11-20T13:26:21;96194.22;;;4.11;100.00
45731;BME280;31440;48.584;13.460;2022-11-20T13:29:00;96200.66;;;4.29;100.00
45731;BME280;31440;48.584;13.460;2022-11-20T13:31:32;96200.13;;;4.50;100.00
45731;BME280;31440;48.584;13.460;2022-11-20T13:34:00;96189.91;;;4.47;100.00
45731;BME280;31440;48.584;13.460;2022-11-20T13:36:28;96180.75;;;4.36;100.00
45731;BME280;31440;48.584;13.460;2022-11-20T13:38:56;96180.31;;;4.54;100.00
45731;BME280;31440;48.584;13.460;2022-11-20T13:41:29;96180.69;;;4.39;100.00
45731;BME280;31440;48.584;13.460;2022-11-20T13:49:08;96181.19;;;4.19;100.00
45731;BME280;31440;48.584;13.460;2022-11-20T13:51:46;96179.19;;;4.30;100.00
45731;BME280;31440;48.584;13.460;2022-11-20T13:59:58;96183.59;;;4.26;100.00
45731;BME280;31440;48.584;13.460;2022-11-20T14:02:27;96188.03;;;4.20;100.00
45731;BME280;31440;48.584;13.460;2022-11-20T14:04:58;96183.59;;;3.89;100.00
45731;BME280;31440;48.584;13.460;2022-11-20T14:07:27;96183.34;;;4.00;100.00
45731;BME280;31440;48.584;13.460;2022-11-20T14:09:57;96174.78;;;4.00;100.00
45731;BME280;31440;48.584;13.460;2022-11-20T14:12:32;96185.81;;;4.05;100.00
45731;BME280;31440;48.584;13.460;2022-11-20T14:14:59;96184.47;;;4.25;100.00
45731;BME280;31440;48.584;13.460;2022-11-20T14:17:33;96191.31;;;4.26;100.00